Time;durP1;ratioP1;P1;durP2;ratioP2;P2;SDS_P1;SDS_P2;PMS_P1;PMS_P2;Temp;Humidity;BMP_temperature;BMP_pressure;BME280_temperature;BME280_humidity;BME280_pressure;Samples;Min_cycle;Max_cycle;Signal;HPM_P1;HPM_P2
2022/06/07 00:02:06;;;;;;;1999.90;999.90;;;;;;;20.08;100.00;69772.59;5055666;28;20195;-62
2022/06/07 00:04:33;;;;;;;1999.90;999.90;;;;;;;20.05;100.00;69770.09;5055594;28;20201;-53
2022/06/07 00:06:59;;;;;;;1999.90;999.90;;;;;;;20.03;100.00;69767.38;5056136;28;20189;-50
2022/06/07 00:09:24;;;;;;;1999.90;999.90;;;;;;;20.00;100.00;69764.47;5055621;28;20192;-65
2022/06/07 00:11:50;;;;;;;1999.90;999.90;;;;;;;19.97;100.00;69760.88;5055718;28;20182;-63
2022/06/07 00:14:15;;;;;;;1999.90;999.90;;;;;;;19.94;100.00;69757.44;5055829;28;20188;-63
2022/06/07 00:16:42;;;;;;;1999.90;999.90;;;;;;;19.91;100.00;69753.81;5055627;28;20285;-64
2022/06/07 00:19:07;;;;;;;1999.90;999.90;;;;;;;19.87;100.00;69749.81;5055667;28;20255;-64
2022/06/07 00:21:33;;;;;;;1999.90;999.90;;;;;;;19.83;100.00;69745.34;5055504;28;20189;-64
2022/06/07 00:24:01;;;;;;;1999.90;999.90;;;;;;;19.78;100.00;69739.50;5055584;28;20209;-51
2022/06/07 00:26:29;;;;;;;1999.90;999.90;;;;;;;19.73;100.00;69733.78;5055347;28;20246;-64
2022/06/07 00:28:55;;;;;;;1999.90;999.90;;;;;;;19.67;100.00;69727.91;5072225;28;20280;-64
2022/06/07 00:31:20;;;;;;;1999.90;999.90;;;;;;;19.62;100.00;69721.84;5073114;28;20224;-64
2022/06/07 00:33:46;;;;;;;1999.90;999.90;;;;;;;19.56;100.00;69715.81;5055434;28;20185;-65
2022/06/07 00:36:12;;;;;;;1999.90;999.90;;;;;;;19.51;100.00;69709.69;5055403;28;20212;-65
2022/06/07 00:38:38;;;;;;;1999.90;999.90;;;;;;;19.45;100.00;69703.50;5071997;28;20190;-65
2022/06/07 00:41:03;;;;;;;1999.90;999.90;;;;;;;19.40;100.00;69697.19;5055518;28;20200;-65
2022/06/07 00:43:30;;;;;;;1999.90;999.90;;;;;;;19.34;100.00;69691.31;5039430;28;20286;-62
2022/06/07 00:45:57;;;;;;;1999.90;999.90;;;;;;;19.28;100.00;69684.94;5055509;28;20189;-45
2022/06/07 00:48:23;;;;;;;1999.90;999.90;;;;;;;19.23;100.00;69678.78;5071757;28;20192;-48
2022/06/07 00:51:00;;;;;;;1999.90;999.90;;;;;;;19.17;100.00;69671.75;5055384;28;20193;-46
2022/06/07 00:53:32;;;;;;;1999.90;999.90;;;;;;;19.12;100.00;69665.72;5055452;28;20193;-48
2022/06/07 00:55:59;;;;;;;1999.90;999.90;;;;;;;19.06;100.00;69659.59;5055397;28;20189;-48
2022/06/07 00:58:27;;;;;;;1999.90;999.90;;;;;;;19.01;100.00;69653.75;5055103;28;20220;-49
2022/06/07 01:00:53;;;;;;;1999.90;999.90;;;;;;;18.96;100.00;69647.84;5054979;28;20198;-68
2022/06/07 01:03:20;;;;;;;1999.90;999.90;;;;;;;18.90;100.00;69640.97;5056966;28;20201;-65
2022/06/07 01:05:49;;;;;;;1999.90;999.90;;;;;;;18.84;100.00;69634.31;5058346;28;20185;-65
2022/06/07 01:11:03;;;;;;;1999.90;999.90;;;;;;;18.72;100.00;69620.44;5076293;28;20216;-58
2022/06/07 01:13:32;;;;;;;1999.90;999.90;;;;;;;18.66;100.00;69613.63;5025162;28;20215;-58
2022/06/07 01:16:05;;;;;;;1999.90;999.90;;;;;;;18.59;100.00;69606.41;5058144;28;20192;-59
2022/06/07 01:18:31;;;;;;;1999.90;999.90;;;;;;;18.52;100.00;69598.91;5058518;28;20189;-62
2022/06/07 01:21:28;;;;;;;1999.90;999.90;;;;;;;18.45;100.00;69590.81;5058723;28;20189;-60
2022/06/07 01:23:54;;;;;;;1999.90;999.90;;;;;;;18.38;100.00;69582.28;5058086;28;20277;-59
2022/06/07 01:26:19;;;;;;;1999.90;999.90;;;;;;;18.30;100.00;69573.53;5058228;28;20189;-58
2022/06/07 01:28:44;;;;;;;1999.90;999.90;;;;;;;18.22;100.00;69565.50;5058077;28;20200;-57
2022/06/07 01:31:10;;;;;;;1999.90;999.90;;;;;;;18.15;100.00;69557.75;5058051;28;20170;-59
2022/06/07 01:33:36;;;;;;;1999.90;999.90;;;;;;;18.08;100.00;69549.22;5058488;28;20185;-59
2022/06/07 01:36:08;;;;;;;1999.90;999.90;;;;;;;18.01;100.00;69541.38;5075138;28;20191;-64
2022/06/07 01:38:35;;;;;;;1999.90;999.90;;;;;;;17.93;100.00;69533.06;5058039;28;20189;-67
2022/06/07 01:43:45;;;;;;;1999.90;999.90;;;;;;;17.76;100.00;69514.13;5076028;28;20263;-57
2022/06/07 01:46:11;;;;;;;1999.90;999.90;;;;;;;17.68;100.00;69504.94;5057623;28;20181;-57
2022/06/07 01:48:36;;;;;;;1999.90;999.90;;;;;;;17.61;100.00;69497.44;5057947;28;20185;-57
2022/06/07 01:51:04;;;;;;;1999.90;999.90;;;;;;;17.54;100.00;69490.13;5057695;28;20193;-57
2022/06/07 01:53:29;;;;;;;1999.90;999.90;;;;;;;17.48;100.00;69483.44;5057649;28;20224;-57
2022/06/07 01:56:03;;;;;;;1999.90;999.90;;;;;;;17.43;100.00;69477.59;5057413;28;20189;-52
2022/06/07 01:58:29;;;;;;;1999.90;999.90;;;;;;;17.38;100.00;69471.81;5057596;28;20189;-60
2022/06/07 02:00:54;;;;;;;1999.90;999.90;;;;;;;17.33;100.00;69465.56;5057609;28;20203;-60
2022/06/07 02:03:20;;;;;;;1999.90;999.90;;;;;;;17.28;100.00;69460.44;5057879;28;20254;-60
2022/06/07 02:06:02;;;;;;;1999.90;999.90;;;;;;;17.24;100.00;69455.53;5057324;28;20197;-60
2022/06/07 02:08:28;;;;;;;1999.90;999.90;;;;;;;17.19;100.00;69450.81;5057945;28;20220;-60
2022/06/07 02:10:54;;;;;;;1999.90;999.90;;;;;;;17.15;100.00;69446.38;5057392;28;20185;-60
2022/06/07 02:13:21;;;;;;;1999.90;999.90;;;;;;;17.11;100.00;69442.09;5057706;28;20189;-67
2022/06/07 02:15:47;;;;;;;1999.90;999.90;;;;;;;17.08;100.00;69437.88;5056585;28;20185;-71
2022/06/07 02:18:13;;;;;;;1999.90;999.90;;;;;;;17.04;100.00;69433.63;5056936;28;20232;-51
2022/06/07 02:20:39;;;;;;;1999.90;999.90;;;;;;;17.01;100.00;69429.13;5057728;28;20181;-47
2022/06/07 02:23:05;;;;;;;1999.90;999.90;;;;;;;16.97;100.00;69425.50;5057618;28;20211;-50
2022/06/07 02:25:37;;;;;;;1999.90;999.90;;;;;;;16.95;100.00;69422.56;5057126;28;20275;-48
2022/06/07 02:28:04;;;;;;;1999.90;999.90;;;;;;;16.92;100.00;69419.50;5073870;28;20193;-48
2022/06/07 02:30:30;;;;;;;1999.90;999.90;;;;;;;16.89;100.00;69416.16;5074035;28;20275;-47
2022/06/07 02:32:55;;;;;;;1999.90;999.90;;;;;;;16.87;100.00;69413.59;5057417;28;20201;-59
2022/06/07 02:35:21;;;;;;;1999.90;999.90;;;;;;;16.85;100.00;69411.19;5057252;28;20280;-50
2022/06/07 02:37:46;;;;;;;1999.90;999.90;;;;;;;16.83;100.00;69409.00;5057362;28;20189;-54
2022/06/07 02:40:12;;;;;;;1999.90;999.90;;;;;;;16.81;100.00;69406.31;5057117;28;20252;-52
2022/06/07 02:42:38;;;;;;;1999.90;999.90;;;;;;;16.78;100.00;69403.25;5056811;28;20185;-48
2022/06/07 02:45:04;;;;;;;1999.90;999.90;;;;;;;16.76;100.00;69401.63;5057039;28;20200;-52
2022/06/07 02:47:30;;;;;;;1999.90;999.90;;;;;;;16.74;100.00;69398.97;5057086;28;20310;-49
2022/06/07 02:49:56;;;;;;;1999.90;999.90;;;;;;;16.72;100.00;69396.59;5056679;28;20268;-47
2022/06/07 02:52:22;;;;;;;1999.90;999.90;;;;;;;16.69;100.00;69393.38;5056718;28;20272;-49
2022/06/07 02:54:47;;;;;;;1999.90;999.90;;;;;;;16.67;100.00;69391.03;5073390;28;20177;-50
2022/06/07 02:57:14;;;;;;;1999.90;999.90;;;;;;;16.65;100.00;69388.41;5056700;28;20185;-49
2022/06/07 02:59:40;;;;;;;1999.90;999.90;;;;;;;16.62;100.00;69385.66;5056686;28;20203;-50
2022/06/07 03:02:05;;;;;;;1999.90;999.90;;;;;;;16.60;100.00;69382.53;5057209;28;20193;-49
2022/06/07 03:04:30;;;;;;;1999.90;999.90;;;;;;;16.58;100.00;69379.78;5056499;28;20201;-50
2022/06/07 03:06:56;;;;;;;1999.90;999.90;;;;;;;16.56;100.00;69377.59;5056867;28;20192;-49
2022/06/07 03:09:21;;;;;;;1999.90;999.90;;;;;;;16.55;100.00;69375.97;5056749;28;20173;-55
2022/06/07 03:11:46;;;;;;;1999.90;999.90;;;;;;;16.54;100.00;69374.78;5056694;28;20272;-62
2022/06/07 03:14:12;;;;;;;1999.90;999.90;;;;;;;16.54;100.00;69374.16;5056781;28;20322;-62
2022/06/07 03:16:37;;;;;;;1999.90;999.90;;;;;;;16.53;100.00;69373.75;5056439;28;20410;-62
2022/06/07 03:19:03;;;;;;;1999.90;999.90;;;;;;;16.53;100.00;69373.63;5074275;28;20181;-61
2022/06/07 03:21:28;;;;;;;1999.90;999.90;;;;;;;16.52;100.00;69372.81;5056472;28;20212;-61
2022/06/07 03:23:54;;;;;;;1999.90;999.90;;;;;;;16.52;100.00;69371.75;5055971;28;20205;-61
2022/06/07 03:26:20;;;;;;;1999.90;999.90;;;;;;;16.51;100.00;69371.53;5054896;28;20250;-61
2022/06/07 03:28:45;;;;;;;1999.90;999.90;;;;;;;16.50;100.00;69370.53;5056313;28;20185;-61
2022/06/07 03:31:14;;;;;;;1999.90;999.90;;;;;;;16.50;100.00;69370.25;5056078;28;20195;-59
2022/06/07 03:33:41;;;;;;;1999.90;999.90;;;;;;;16.50;100.00;69369.63;5056135;28;20189;-59
2022/06/07 03:36:13;;;;;;;1999.90;999.90;;;;;;;16.50;100.00;69369.34;5055894;28;20189;-60
2022/06/07 03:38:40;;;;;;;1999.90;999.90;;;;;;;16.49;100.00;69369.13;5056559;28;20209;-59
2022/06/07 03:41:06;;;;;;;1999.90;999.90;;;;;;;16.49;100.00;69369.13;5055967;28;20184;-59
2022/06/07 03:43:32;;;;;;;1999.90;999.90;;;;;;;16.49;100.00;69369.03;5055763;28;20200;-59
2022/06/07 03:46:07;;;;;;;1999.90;999.90;;;;;;;16.48;100.00;69368.66;5056143;28;20184;-57
2022/06/07 03:48:32;;;;;;;1999.90;999.90;;;;;;;16.48;100.00;69369.00;5056283;28;20180;-74
2022/06/07 03:50:58;;;;;;;1999.90;999.90;;;;;;;16.48;100.00;69369.16;5055504;28;20185;-74
2022/06/07 03:53:23;;;;;;;1999.90;999.90;;;;;;;16.48;100.00;69369.00;5055764;28;20181;-72
2022/06/07 03:55:52;;;;;;;1999.90;999.90;;;;;;;16.48;100.00;69369.06;5056311;28;20227;-74
2022/06/07 03:58:18;;;;;;;1999.90;999.90;;;;;;;16.48;100.00;69369.06;5055535;28;20197;-71
2022/06/07 04:00:44;;;;;;;1999.90;999.90;;;;;;;16.48;100.00;69368.31;5055729;28;20258;-75
2022/06/07 04:03:09;;;;;;;1999.90;999.90;;;;;;;16.47;100.00;69367.31;5072837;28;20323;-63
2022/06/07 04:05:43;;;;;;;1999.90;999.90;;;;;;;16.46;100.00;69365.94;5073117;28;20185;-64
2022/06/07 04:08:11;;;;;;;1999.90;999.90;;;;;;;16.44;100.00;69364.72;5072703;28;20177;-67
2022/06/07 04:10:46;;;;;;;1999.90;999.90;;;;;;;16.43;100.00;69363.88;5011964;28;20203;-66
2022/06/07 04:13:13;;;;;;;1999.90;999.90;;;;;;;16.43;100.00;69363.22;4995833;28;20191;-63
2022/06/07 04:15:39;;;;;;;1999.90;999.90;;;;;;;16.42;100.00;69362.72;4995974;28;20198;-65
2022/06/07 04:18:05;;;;;;;1999.90;999.90;;;;;;;16.41;100.00;69361.72;4995363;28;20217;-68
2022/06/07 04:20:30;;;;;;;1999.90;999.90;;;;;;;16.40;100.00;69360.78;5011933;28;20199;-65
2022/06/07 04:22:56;;;;;;;1999.90;999.90;;;;;;;16.40;100.00;69360.31;4995478;28;20191;-59
2022/06/07 04:25:21;;;;;;;1999.90;999.90;;;;;;;16.39;100.00;69359.94;4995890;28;20237;-52
2022/06/07 04:27:46;;;;;;;1999.90;999.90;;;;;;;16.38;100.00;69358.81;4995940;28;20215;-51
2022/06/07 04:30:12;;;;;;;1999.90;999.90;;;;;;;16.38;100.00;69357.47;4995157;28;20191;-53
2022/06/07 04:32:39;;;;;;;1999.90;999.90;;;;;;;16.37;100.00;69357.09;4995425;28;20228;-53
2022/06/07 04:35:05;;;;;;;1999.90;999.90;;;;;;;16.37;100.00;69356.53;4995195;28;20195;-54
2022/06/07 04:37:31;;;;;;;1999.90;999.90;;;;;;;16.36;100.00;69355.97;4996025;28;20191;-54
2022/06/07 04:39:56;;;;;;;1999.90;999.90;;;;;;;16.35;100.00;69355.50;4998548;28;20219;-59
2022/06/07 04:42:21;;;;;;;1999.90;999.90;;;;;;;16.34;100.00;69354.56;5048041;28;20205;-65
2022/06/07 04:44:48;;;;;;;1999.90;999.90;;;;;;;16.34;100.00;69354.50;5058435;28;20205;-58
2022/06/07 04:47:14;;;;;;;1999.90;999.90;;;;;;;16.34;100.00;69354.22;5058435;28;20238;-58
2022/06/07 04:49:39;;;;;;;1999.90;999.90;;;;;;;16.34;100.00;69354.41;5058612;28;20185;-58
2022/06/07 04:52:05;;;;;;;1999.90;999.90;;;;;;;16.34;100.00;69354.97;5058951;28;20197;-58
2022/06/07 04:54:30;;;;;;;1999.90;999.90;;;;;;;16.34;100.00;69354.84;5058242;28;20181;-57
2022/06/07 04:56:55;;;;;;;1999.90;999.90;;;;;;;16.33;100.00;69354.28;5059042;28;20216;-57
2022/06/07 04:59:21;;;;;;;1999.90;999.90;;;;;;;16.33;100.00;69353.63;5058316;28;20229;-45
2022/06/07 05:01:46;;;;;;;1999.90;999.90;;;;;;;16.32;100.00;69352.81;5058826;28;20185;-61
2022/06/07 05:04:12;;;;;;;1999.90;999.90;;;;;;;16.31;100.00;69352.06;5058716;28;20231;-61
2022/06/07 05:06:42;;;;;;;1999.90;999.90;;;;;;;16.31;100.00;69352.41;5058271;28;20196;-59
2022/06/07 05:09:12;;;;;;;1999.90;999.90;;;;;;;16.31;100.00;69352.59;5058340;28;20204;-61
2022/06/07 05:11:37;;;;;;;1999.90;999.90;;;;;;;16.32;100.00;69352.63;5058503;28;20278;-60
2022/06/07 05:14:05;;;;;;;1999.90;999.90;;;;;;;16.32;100.00;69352.28;5058332;28;20597;-60
2022/06/07 05:16:32;;;;;;;1999.90;999.90;;;;;;;16.32;100.00;69352.47;5058221;28;20201;-61
2022/06/07 05:18:57;;;;;;;1999.90;999.90;;;;;;;16.33;100.00;69353.28;5058143;28;20196;-50
2022/06/07 05:21:25;;;;;;;1999.90;999.90;;;;;;;16.34;100.00;69355.03;5058570;28;20185;-60
2022/06/07 05:23:52;;;;;;;1999.90;999.90;;;;;;;16.35;100.00;69355.88;5074672;28;20204;-61
2022/06/07 05:26:27;;;;;;;1999.90;999.90;;;;;;;16.36;100.00;69357.06;5057916;28;20197;-60
2022/06/07 05:28:53;;;;;;;1999.90;999.90;;;;;;;16.37;100.00;69358.34;5074882;28;20211;-60
2022/06/07 05:31:19;;;;;;;1999.90;999.90;;;;;;;16.38;100.00;69359.47;5057753;28;20197;-59
2022/06/07 05:33:44;;;;;;;1999.90;999.90;;;;;;;16.39;100.00;69360.75;5057743;28;20193;-59
2022/06/07 05:36:10;;;;;;;1999.90;999.90;;;;;;;16.39;100.00;69361.31;5057932;28;20189;-60
2022/06/07 05:38:35;;;;;;;1999.90;999.90;;;;;;;16.40;100.00;69362.16;5058083;28;20197;-62
2022/06/07 05:41:01;;;;;;;1999.90;999.90;;;;;;;16.40;100.00;69362.41;5057864;28;20223;-65
2022/06/07 05:43:26;;;;;;;1999.90;999.90;;;;;;;16.40;100.00;69362.41;5058069;28;20391;-66
2022/06/07 05:45:53;;;;;;;1999.90;999.90;;;;;;;16.40;100.00;69362.41;5058141;28;20189;-66
2022/06/07 05:48:19;;;;;;;1999.90;999.90;;;;;;;16.40;100.00;69362.31;5058381;28;20189;-65
2022/06/07 05:50:50;;;;;;;1999.90;999.90;;;;;;;16.40;100.00;69361.88;5056819;28;20246;-65
2022/06/07 05:53:17;;;;;;;1999.90;999.90;;;;;;;16.40;100.00;69362.56;5057724;28;20189;-65
2022/06/07 05:55:43;;;;;;;1999.90;999.90;;;;;;;16.41;100.00;69362.84;5058109;28;20173;-67
2022/06/07 05:58:09;;;;;;;1999.90;999.90;;;;;;;16.40;100.00;69363.09;5057497;28;20177;-64
2022/06/07 06:00:36;;;;;;;1999.90;999.90;;;;;;;16.41;100.00;69363.38;5074178;28;20243;-62
2022/06/07 06:03:01;;;;;;;1999.90;999.90;;;;;;;16.40;100.00;69363.44;5057769;28;20199;-64
2022/06/07 06:05:27;;;;;;;1999.90;999.90;;;;;;;16.40;100.00;69363.34;5057366;28;20205;-62
2022/06/07 06:10:36;;;;;;;1999.90;999.90;;;;;;;16.39;100.00;69361.84;5075329;28;20224;-62
2022/06/07 06:13:01;;;;;;;1999.90;999.90;;;;;;;16.37;100.00;69360.13;5057546;28;20248;-45
2022/06/07 06:15:27;;;;;;;1999.90;999.90;;;;;;;16.37;100.00;69359.22;5057311;28;20189;-58
2022/06/07 06:17:53;;;;;;;1999.90;999.90;;;;;;;16.36;100.00;69358.38;5057048;28;20266;-61
2022/06/07 06:20:19;;;;;;;1999.90;999.90;;;;;;;16.35;100.00;69357.53;5057126;28;20188;-61
2022/06/07 06:22:45;;;;;;;1999.90;999.90;;;;;;;16.35;100.00;69356.72;5057365;28;20196;-61
2022/06/07 06:25:11;;;;;;;1999.90;999.90;;;;;;;16.33;100.00;69355.31;5056895;28;20209;-61
2022/06/07 06:27:37;;;;;;;1999.90;999.90;;;;;;;16.30;100.00;69352.06;5056722;28;20189;-57
2022/06/07 06:30:03;;;;;;;1999.90;999.90;;;;;;;16.26;100.00;69348.06;5057115;28;20203;-55
2022/06/07 06:32:29;;;;;;;1999.90;999.90;;;;;;;16.23;100.00;69344.63;5056695;28;20197;-58
2022/06/07 06:34:54;;;;;;;1999.90;999.90;;;;;;;16.20;100.00;69341.72;5056599;28;20189;-58
2022/06/07 06:37:19;;;;;;;1999.90;999.90;;;;;;;16.18;100.00;69338.97;5056948;28;20315;-58
2022/06/07 06:39:45;;;;;;;1999.90;999.90;;;;;;;16.16;100.00;69337.47;5057426;28;20192;-58
2022/06/07 06:42:11;;;;;;;1999.90;999.90;;;;;;;16.15;100.00;69335.84;5056826;28;20181;-58
2022/06/07 06:44:36;;;;;;;1999.90;999.90;;;;;;;16.13;100.00;69334.53;5057118;28;20205;-58
2022/06/07 06:47:02;;;;;;;1999.90;999.90;;;;;;;16.11;100.00;69332.22;5056825;28;20192;-58
2022/06/07 06:49:28;;;;;;;1999.90;999.90;;;;;;;16.10;100.00;69331.53;5056502;28;20189;-56
2022/06/07 06:51:55;;;;;;;1999.90;999.90;;;;;;;16.09;100.00;69330.72;5057187;28;20195;-50
2022/06/07 06:54:21;;;;;;;1999.90;999.90;;;;;;;16.09;100.00;69330.72;5073037;28;20188;-50
2022/06/07 06:56:47;;;;;;;1999.90;999.90;;;;;;;16.10;100.00;69331.00;5056966;28;20242;-55
2022/06/07 06:59:14;;;;;;;1999.90;999.90;;;;;;;16.10;100.00;69331.88;5056752;28;20280;-51
2022/06/07 07:01:41;;;;;;;1999.90;999.90;;;;;;;16.11;100.00;69332.50;5056335;28;20185;-51
2022/06/07 07:04:10;;;;;;;1999.90;999.90;;;;;;;16.12;100.00;69334.06;5056398;28;20244;-50
2022/06/07 07:06:37;;;;;;;1999.90;999.90;;;;;;;16.14;100.00;69335.81;5073556;28;20208;-52
2022/06/07 07:09:04;;;;;;;1999.90;999.90;;;;;;;16.16;100.00;69338.66;5056188;28;20197;-69
2022/06/07 07:11:42;;;;;;;1999.90;999.90;;;;;;;16.19;100.00;69341.44;5056864;28;20220;-58
2022/06/07 07:14:09;;;;;;;1999.90;999.90;;;;;;;16.22;100.00;69344.84;5056473;28;20185;-58
2022/06/07 07:16:47;;;;;;;1999.90;999.90;;;;;;;16.24;100.00;69347.78;5056756;28;20236;-58
2022/06/07 07:19:13;;;;;;;1999.90;999.90;;;;;;;16.28;100.00;69352.56;5073265;28;20207;-57
2022/06/07 07:21:45;;;;;;;1999.90;999.90;;;;;;;16.30;100.00;69354.78;5056355;28;20268;-58
2022/06/07 07:24:17;;;;;;;1999.90;999.90;;;;;;;16.31;100.00;69356.19;5056843;28;20272;-59
2022/06/07 07:26:43;;;;;;;1999.90;999.90;;;;;;;16.33;100.00;69357.56;5056181;28;20192;-72
2022/06/07 07:29:11;;;;;;;1999.90;999.90;;;;;;;16.34;100.00;69359.13;5056628;28;20255;-58
2022/06/07 07:31:37;;;;;;;1999.90;999.90;;;;;;;16.35;100.00;69360.91;5072660;28;20193;-57
2022/06/07 07:34:04;;;;;;;1999.90;999.90;;;;;;;16.36;100.00;69362.03;5056045;28;20189;-59
2022/06/07 07:36:31;;;;;;;1999.90;999.90;;;;;;;16.36;100.00;69362.47;5055993;28;20184;-59
2022/06/07 07:38:57;;;;;;;1999.90;999.90;;;;;;;16.36;100.00;69362.94;5055726;28;20193;-58
2022/06/07 07:41:29;;;;;;;1999.90;999.90;;;;;;;16.37;100.00;69363.50;5072596;28;20192;-59
2022/06/07 07:43:58;;;;;;;1999.90;999.90;;;;;;;16.37;100.00;69363.88;5072414;28;20205;-55
2022/06/07 07:46:27;;;;;;;1999.90;999.90;;;;;;;16.38;100.00;69364.44;5056026;28;20188;-46
2022/06/07 07:48:53;;;;;;;1999.90;999.90;;;;;;;16.39;100.00;69365.28;5055927;28;20184;-52
2022/06/07 07:51:25;;;;;;;1999.90;999.90;;;;;;;16.40;100.00;69366.81;5056068;28;20251;-45
2022/06/07 07:53:52;;;;;;;1999.90;999.90;;;;;;;16.41;100.00;69367.75;5072723;28;20226;-51
2022/06/07 07:56:18;;;;;;;1999.90;999.90;;;;;;;16.42;100.00;69369.34;5056157;28;20188;-49
2022/06/07 07:58:44;;;;;;;1999.90;999.90;;;;;;;16.43;100.00;69370.91;5056118;28;20195;-54
2022/06/07 08:01:12;;;;;;;1999.90;999.90;;;;;;;16.45;100.00;69372.28;5055816;28;20215;-52
2022/06/07 08:03:39;;;;;;;1999.90;999.90;;;;;;;16.45;100.00;69373.09;5055562;28;20205;-60
2022/06/07 08:06:10;;;;;;;1999.90;999.90;;;;;;;16.45;100.00;69372.81;5055700;28;20238;-71
2022/06/07 08:08:36;;;;;;;1999.90;999.90;;;;;;;16.44;100.00;69372.34;5073391;28;20177;-71
2022/06/07 08:11:02;;;;;;;1999.90;999.90;;;;;;;16.44;100.00;69372.53;5055447;28;20188;-71
2022/06/07 08:13:27;;;;;;;1999.90;999.90;;;;;;;16.44;100.00;69372.69;5074641;28;20199;-71
2022/06/07 08:15:53;;;;;;;1999.90;999.90;;;;;;;16.43;100.00;69371.31;5059102;28;20189;-73
2022/06/07 08:18:18;;;;;;;1999.90;999.90;;;;;;;16.43;100.00;69370.25;5059331;28;20209;-71
2022/06/07 08:20:43;;;;;;;1999.90;999.90;;;;;;;16.42;100.00;69369.91;5058799;28;20200;-59
2022/06/07 08:23:10;;;;;;;1999.90;999.90;;;;;;;16.42;100.00;69370.09;5058714;28;20185;-62
2022/06/07 08:25:37;;;;;;;1999.90;999.90;;;;;;;16.42;100.00;69369.97;5058648;28;20239;-55
2022/06/07 08:28:03;;;;;;;1999.90;999.90;;;;;;;16.42;100.00;69370.25;5059288;28;20272;-55
2022/06/07 08:30:29;;;;;;;1999.90;999.90;;;;;;;16.42;100.00;69370.38;5058934;28;20221;-56
2022/06/07 08:32:54;;;;;;;1999.90;999.90;;;;;;;16.43;100.00;69371.38;5059404;28;20232;-56
2022/06/07 08:38:05;;;;;;;1999.90;999.90;;;;;;;16.43;100.00;69371.66;5077135;28;20207;-56
2022/06/07 08:40:32;;;;;;;1999.90;999.90;;;;;;;16.43;100.00;69371.31;5075506;28;20223;-67
2022/06/07 08:43:00;;;;;;;1999.90;999.90;;;;;;;16.43;100.00;69371.75;5058783;28;20185;-55
2022/06/07 08:45:33;;;;;;;1999.90;999.90;;;;;;;16.44;100.00;69372.94;5058561;28;20212;-54
2022/06/07 08:48:06;;;;;;;1999.90;999.90;;;;;;;16.45;100.00;69373.94;5075449;28;20219;-53
2022/06/07 08:50:41;;;;;;;1999.90;999.90;;;;;;;16.46;100.00;69375.13;5058960;28;20181;-51
2022/06/07 08:53:20;;;;;;;1999.90;999.90;;;;;;;16.46;100.00;69375.38;5058698;28;20272;-51
2022/06/07 08:55:54;;;;;;;1999.90;999.90;;;;;;;16.47;100.00;69376.22;5058339;28;20173;-53
2022/06/07 08:58:26;;;;;;;1999.90;999.90;;;;;;;16.48;100.00;69377.44;5058537;28;20220;-52
2022/06/07 09:00:57;;;;;;;1999.90;999.90;;;;;;;16.50;100.00;69379.13;5075980;28;20239;-48
2022/06/07 09:03:41;;;;;;;1999.90;999.90;;;;;;;16.52;100.00;69381.59;5075014;28;20185;-45
2022/06/07 09:06:20;;;;;;;1999.90;999.90;;;;;;;16.54;100.00;69384.72;5075525;28;20229;-47
2022/06/07 09:08:53;;;;;;;1999.90;999.90;;;;;;;16.57;100.00;69387.88;5058638;28;20192;-43
2022/06/07 09:14:19;;;;;;;1999.90;999.90;;;;;;;16.60;100.00;69391.34;5076593;28;20189;-44
2022/06/07 09:16:44;;;;;;;1999.90;999.90;;;;;;;16.61;100.00;69392.66;5058298;28;20207;-53
2022/06/07 09:19:15;;;;;;;1999.90;999.90;;;;;;;16.61;100.00;69393.09;5058162;28;20181;-57
2022/06/07 09:21:43;;;;;;;1999.90;999.90;;;;;;;16.63;100.00;69394.59;5076164;28;20184;-57
2022/06/07 09:24:18;;;;;;;1999.90;999.90;;;;;;;16.65;100.00;69397.72;5057820;28;20228;-57
2022/06/07 09:26:43;;;;;;;1999.90;999.90;;;;;;;16.69;100.00;69401.59;5074638;28;20204;-57
2022/06/07 09:29:17;;;;;;;1999.90;999.90;;;;;;;16.73;100.00;69406.78;5058257;28;20253;-57
2022/06/07 09:31:45;;;;;;;1999.90;999.90;;;;;;;16.78;100.00;69412.03;5074777;28;20188;-57
2022/06/07 09:34:23;;;;;;;1999.90;999.90;;;;;;;16.83;100.00;69418.03;5074523;28;20268;-60
2022/06/07 09:37:02;;;;;;;1999.90;999.90;;;;;;;16.87;100.00;69422.56;5057960;28;20181;-65
2022/06/07 09:39:38;;;;;;;1999.90;999.90;;;;;;;16.90;100.00;69425.94;5058038;28;20380;-69
2022/06/07 09:42:28;;;;;;;1999.90;999.90;;;;;;;16.94;100.00;69429.84;5058341;28;20188;-68
2022/06/07 09:45:14;;;;;;;1999.90;999.90;;;;;;;16.97;100.00;69433.63;5052694;28;20215;-72
2022/06/07 09:47:39;;;;;;;1999.90;999.90;;;;;;;17.01;100.00;69438.38;5037373;28;20200;-69
2022/06/07 09:50:18;;;;;;;1999.90;999.90;;;;;;;17.06;100.00;69444.44;5057536;28;20245;-71
2022/06/07 09:52:52;;;;;;;1999.90;999.90;;;;;;;17.12;100.00;69451.75;5074634;28;20234;-50
2022/06/07 09:55:35;;;;;;;1999.90;999.90;;;;;;;17.19;100.00;69459.59;5058175;28;20176;-63
2022/06/07 09:58:19;;;;;;;1999.90;999.90;;;;;;;17.25;100.00;69467.34;5057997;28;20262;-64
2022/06/07 10:00:53;;;;;;;1999.90;999.90;;;;;;;17.29;100.00;69471.78;5057948;28;20181;-63
2022/06/07 10:03:59;;;;;;;1999.90;999.90;;;;;;;17.31;100.00;69474.09;5057687;28;20192;-64
2022/06/07 10:06:32;;;;;;;1999.90;999.90;;;;;;;17.31;100.00;69473.91;5041430;28;20193;-63
2022/06/07 10:09:07;;;;;;;1999.90;999.90;;;;;;;17.30;100.00;69473.47;5057460;28;20196;-64
2022/06/07 10:11:40;;;;;;;1999.90;999.90;;;;;;;17.28;100.00;69471.81;5057200;28;20397;-57
2022/06/07 10:14:12;;;;;;;1999.90;999.90;;;;;;;17.26;100.00;69469.47;5057287;28;20185;-59
2022/06/07 10:17:21;;;;;;;1999.90;999.90;;;;;;;17.24;100.00;69466.69;5057391;28;20205;-58
2022/06/07 10:20:06;;;;;;;1999.90;999.90;;;;;;;17.21;100.00;69464.19;5052661;28;20205;-59
2022/06/07 10:23:01;;;;;;;1999.90;999.90;;;;;;;17.19;100.00;69461.63;5057557;28;20188;-62
2022/06/07 10:25:26;;;;;;;1999.90;999.90;;;;;;;17.18;100.00;69460.69;5056804;28;20213;-58
2022/06/07 10:27:54;;;;;;;1999.90;999.90;;;;;;;17.18;100.00;69460.84;5056985;28;20192;-59
2022/06/07 10:30:58;;;;;;;1999.90;999.90;;;;;;;17.20;100.00;69462.06;5057226;28;20200;-73
2022/06/07 10:33:57;;;;;;;1999.90;999.90;;;;;;;17.22;100.00;69465.47;4996776;28;20191;-55
2022/06/07 10:36:59;;;;;;;1999.90;999.90;;;;;;;17.26;100.00;69470.25;4996588;28;20199;-57
2022/06/07 10:39:45;;;;;;;1999.90;999.90;;;;;;;17.30;100.00;69474.44;5053598;28;20192;-56
2022/06/07 10:42:11;;;;;;;1999.90;999.90;;;;;;;17.35;100.00;69479.53;5056733;28;20192;-57
2022/06/07 10:45:11;;;;;;;1999.90;999.90;;;;;;;17.40;100.00;69485.09;5056851;28;20208;-55
2022/06/07 10:47:48;;;;;;;1999.90;999.90;;;;;;;17.47;100.00;69493.25;5044895;28;20201;-75
2022/06/07 10:50:29;;;;;;;1999.90;999.90;;;;;;;17.56;100.00;69503.34;5073881;28;20185;-65
2022/06/07 10:53:19;;;;;;;1999.90;999.90;;;;;;;17.65;100.00;69513.78;5073413;28;20212;-63
2022/06/07 10:55:55;;;;;;;1999.90;999.90;;;;;;;17.75;100.00;69524.97;5056940;28;20185;-64
2022/06/07 10:58:30;;;;;;;1999.90;999.90;;;;;;;17.84;100.00;69536.03;5057399;28;20169;-65
2022/06/07 11:01:02;;;;;;;1999.90;999.90;;;;;;;17.91;100.00;69545.16;5073824;28;20195;-68
2022/06/07 11:03:42;;;;;;;1999.90;999.90;;;;;;;17.99;100.00;69554.13;5057039;28;20181;-67
2022/06/07 11:09:21;;;;;;;1999.90;999.90;;;;;;;18.16;100.00;69572.03;5074812;28;20223;-46
2022/06/07 11:12:00;;;;;;;1999.90;999.90;;;;;;;18.23;100.00;69580.56;5056302;28;20188;-54
2022/06/07 11:14:56;;;;;;;1999.90;999.90;;;;;;;18.31;100.00;69588.75;5056270;28;20180;-48